Date,TemperatureHighF,TemperatureAvgF,TemperatureLowF,DewpointHighF,DewpointAvgF,DewpointLowF,HumidityHigh,HumidityAvg,HumidityLow,PressureMaxIn,PressureMinIn,WindSpeedMaxMPH,WindSpeedAvgMPH,GustSpeedMaxMPH,PrecipitationSumIn
2013-1-1,17.6,6.6,-7.6,17.1,6.2,-8.0,98,98,98,30.06,29.65,4,1,0,0.00
2013-1-2,19.4,11.2,-0.4,18.9,10.7,-0.8,98,98,98,30.15,29.64,7,2,0,0.00
2013-1-3,28.4,16.1,3.2,27.9,15.7,2.8,98,98,98,30.14,29.66,8,3,0,0.00
2013-1-4,28.4,19.4,5.0,27.9,18.9,4.6,98,98,98,30.02,29.74,7,2,0,0.00
2013-1-5,14.0,7.7,3.2,13.5,7.3,2.8,98,98,98,30.01,29.95,4,1,0,0.00
2013-1-6,19.4,14.0,3.2,18.9,13.5,2.8,98,98,98,30.06,29.45,7,2,0,0.85
2013-1-7,33.8,27.5,19.4,33.3,27.0,18.9,98,98,98,29.68,29.34,12,2,0,0.00
2013-1-8,32.0,25.7,12.2,31.5,25.2,11.7,98,98,98,29.66,29.36,8,3,0,0.00
2013-1-9,30.2,25.1,21.2,29.7,24.6,20.7,98,98,98,30.03,29.43,13,3,0,0.00
2013-1-10,39.2,30.7,23.0,38.7,30.2,22.5,98,98,98,29.85,29.53,6,2,0,0.14
2013-1-11,26.6,21.1,14.0,26.1,20.6,13.5,98,98,98,29.58,29.52,14,7,0,0.00
2013-1-12,1.4,-5.1,-11.2,1.0,-5.5,-11.6,98,98,98,30.07,29.83,10,4,0,0.00
2013-1-13,5.0,-5.6,-16.6,4.6,-6.0,-17.0,98,98,98,30.10,30.00,5,1,0,0.00
2013-1-14,5.0,-0.7,-11.2,4.6,-1.1,-11.6,98,98,98,30.15,30.03,4,0,0,0.00
2013-1-15,24.8,4.8,-14.8,24.3,4.3,-15.2,98,98,98,30.02,29.33,11,2,0,0.00
2013-1-16,19.4,-3.5,-13.0,18.9,-3.9,-13.4,98,98,98,30.19,29.42,11,4,0,0.00
2013-1-17,-0.4,-5.3,-13.0,-0.8,-5.7,-13.4,98,98,98,30.32,30.05,5,1,0,0.00
2013-1-18,12.2,5.7,-2.2,11.7,5.3,-2.6,98,98,98,30.04,29.62,4,1,0,0.00
2013-1-19,10.4,-0.3,-13.0,9.9,-0.7,-13.4,98,98,98,30.25,29.58,12,3,0,0.00
2013-1-20,-5.8,-11.3,-18.4,-6.2,-11.7,-18.8,98,98,98,30.28,30.21,10,2,0,0.00
2013-1-21,-9.4,-16.0,-20.2,-9.8,-16.4,-20.6,98,98,98,30.24,30.16,7,3,0,0.00
2013-1-22,-0.4,-12.7,-22.0,-0.8,-13.1,-22.4,98,98,98,30.21,30.00,7,1,0,0.00
2013-1-23,-0.4,-13.6,-22.0,-0.8,-14.0,-22.4,98,98,98,30.61,30.00,10,3,0,0.00
2013-1-24,1.4,-11.9,-25.6,1.0,-12.3,-26.0,98,98,98,30.61,29.85,6,1,0,0.00
2013-1-25,1.4,-8.0,-14.8,1.0,-8.4,-15.2,98,98,98,30.22,29.83,5,2,0,0.00
2013-1-26,12.2,-0.7,-14.8,11.7,-1.1,-15.2,98,98,98,30.19,29.93,4,1,0,0.00
2013-1-27,21.2,7.7,-5.8,20.7,7.2,-6.2,98,98,98,29.94,29.72,4,0,0,0.00
2013-1-28,24.8,15.8,3.2,24.3,15.3,2.8,98,98,98,29.73,29.64,3,0,0,0.00
2013-1-29,21.2,14.8,-0.4,20.7,14.3,-0.8,98,98,98,29.93,29.63,9,3,0,0.00
2013-1-30,6.8,1.7,-5.8,6.4,1.3,-6.2,98,98,98,29.92,29.80,7,3,0,1.02
2013-1-31,-5.8,-13.5,-20.2,-6.2,-13.9,-20.6,98,98,98,30.18,29.89,9,4,0,0.00
2013-2-1,-7.6,-17.8,-27.4,-8.0,-18.2,-27.8,98,98,98,30.15,29.98,3,0,0,0.00
2013-2-2,3.2,-8.5,-25.6,2.8,-8.9,-26.0,98,98,98,30.11,29.88,6,1,0,0.00
2013-2-3,10.4,-0.2,-11.2,9.9,-0.6,-11.6,98,98,98,30.01,29.95,6,1,0,0.00
2013-2-4,12.2,1.6,-16.6,11.7,1.2,-17.0,98,98,98,29.95,29.51,6,1,0,0.00
2013-2-5,3.2,-2.9,-14.8,2.8,-3.3,-15.2,98,98,98,29.99,29.60,5,1,0,0.00
2013-2-6,14.0,7.0,1.4,13.5,6.5,1.0,98,98,98,30.15,29.88,6,1,0,0.00
2013-2-7,14.0,2.2,-5.8,13.5,1.8,-6.2,98,98,98,30.26,30.15,4,1,0,0.00
2013-2-8,26.6,12.8,-4.0,26.1,12.3,-4.4,98,98,98,30.20,29.90,7,2,0,0.00
2013-2-9,30.2,25.3,21.2,29.7,24.8,20.7,98,98,98,29.89,29.77,4,2,0,0.00
2013-2-10,30.2,25.9,23.0,29.7,25.4,22.5,98,98,98,29.82,29.74,12,4,0,0.00
2013-2-11,23.0,17.4,12.2,22.5,16.9,11.7,98,98,98,29.87,29.66,11,4,0,0.00
2013-2-12,33.8,23.3,10.4,33.3,22.8,9.9,98,98,98,29.65,29.52,9,2,0,0.00
2013-2-13,33.8,22.0,8.6,33.3,21.5,8.2,98,98,98,29.77,29.53,8,2,0,0.00
2013-2-14,15.8,5.7,-4.0,15.3,5.3,-4.4,98,98,98,30.18,29.78,6,2,0,0.00
2013-2-15,17.6,4.4,-4.0,17.1,4.0,-4.4,98,98,98,30.24,30.10,8,1,0,0.00
2013-2-16,19.4,8.5,-5.8,18.9,8.0,-6.2,98,98,98,30.11,29.73,5,2,0,0.00
2013-2-17,30.2,25.0,17.6,29.7,24.5,17.1,98,98,98,29.73,29.34,8,3,0,0.00
2013-2-18,23.0,3.9,-7.6,22.5,3.5,-8.0,98,98,98,30.16,29.50,17,9,0,0.00
2013-2-19,-0.4,-9.9,-16.6,-0.8,-10.3,-17.0,98,98,98,30.47,30.17,13,4,0,0.00
2013-2-20,14.0,-3.8,-18.4,13.5,-4.3,-18.8,98,98,98,30.48,30.31,4,0,0,0.00
2013-2-21,21.2,10.3,3.2,20.7,9.8,2.8,98,98,98,30.34,30.17,4,1,0,0.00
2013-2-22,24.8,13.2,1.4,24.3,12.7,1.0,98,98,98,30.10,29.84,3,0,0,0.00
2013-2-23,26.6,19.5,8.6,26.1,19.0,8.2,98,98,98,29.83,29.76,4,1,0,0.00
2013-2-24,26.6,19.2,14.0,26.1,18.7,13.5,98,98,98,29.89,29.84,5,1,0,0.00
2013-2-25,33.8,19.8,5.0,33.3,19.3,4.6,98,98,98,29.90,29.79,6,1,0,0.02
2013-2-26,32.0,21.4,12.2,31.5,20.9,11.7,98,98,98,30.03,29.82,3,0,0,0.01
2013-2-27,32.0,22.8,10.4,31.5,22.3,9.9,98,98,98,30.22,30.01,12,3,0,0.00
2013-2-28,26.6,16.2,5.0,26.1,15.7,4.6,98,98,98,30.31,30.22,5,1,0,0.00
2013-3-1,28.4,11.4,-0.4,27.9,11.0,-0.8,98,98,98,30.38,30.25,3,0,0,0.00
2013-3-2,30.2,18.0,3.2,29.7,17.5,2.8,98,98,98,30.24,29.96,8,2,0,0.00
2013-3-3,33.8,27.7,23.0,33.3,27.2,22.5,98,98,98,29.96,29.84,4,1,0,0.00
2013-3-4,30.2,25.3,21.2,29.7,24.8,20.7,98,98,98,30.14,29.88,9,3,0,0.99
2013-3-5,28.4,21.9,15.8,27.9,21.4,15.3,98,98,98,30.33,30.14,8,4,0,0.00
2013-3-6,30.2,19.5,5.0,29.7,19.0,4.6,98,98,98,30.37,30.25,3,0,0,0.00
2013-3-7,32.0,19.7,3.2,31.5,19.2,2.8,98,98,98,30.27,30.06,5,1,0,0.01
2013-3-8,28.4,24.6,19.4,27.9,24.1,18.9,98,98,98,30.10,30.03,7,1,0,0.98
2013-3-9,30.2,24.3,19.4,29.7,23.8,18.9,98,98,98,30.03,29.79,8,2,0,0.00
2013-3-10,24.8,17.6,8.6,24.3,17.1,8.2,98,98,98,30.20,29.97,8,3,0,0.00
2013-3-11,28.4,17.1,6.8,27.9,16.7,6.4,98,98,98,30.02,29.75,3,0,0,0.00
2013-3-12,26.6,19.3,8.6,26.1,18.8,8.2,98,98,98,30.22,29.84,9,3,0,0.00
2013-3-13,21.2,12.0,-2.2,20.7,11.5,-2.6,98,98,98,30.24,29.98,5,1,0,0.00
2013-3-14,32.0,23.4,12.2,31.5,22.9,11.7,98,98,98,30.12,29.94,10,3,0,0.00
2013-3-15,10.4,5.4,1.4,9.9,5.0,1.0,98,98,98,30.16,30.10,12,4,0,0.00
2013-3-16,10.4,3.1,-5.8,9.9,2.7,-6.2,98,98,98,30.23,30.10,9,2,0,0.00
2013-3-17,14.0,3.1,-11.2,13.5,2.7,-11.6,98,98,98,30.22,29.65,4,1,0,0.69
2013-3-18,19.4,15.0,5.0,18.9,14.5,4.6,98,98,98,29.86,29.51,13,5,0,1.67
2013-3-19,21.2,5.9,-5.8,20.7,5.5,-6.2,98,98,98,30.21,29.86,7,3,0,0.00
2013-3-20,19.4,7.5,-4.0,18.9,7.1,-4.4,98,98,98,30.25,30.11,8,2,0,0.00
2013-3-21,23.0,8.6,-5.8,22.5,8.1,-6.2,98,98,98,30.11,30.06,5,1,0,0.01
2013-3-22,30.2,12.8,-4.0,29.7,12.4,-4.4,98,98,98,30.08,30.03,4,1,0,0.01
2013-3-23,32.0,17.8,3.2,31.5,17.3,2.8,98,98,98,30.15,30.07,6,1,0,0.70
2013-3-24,32.0,25.4,17.6,31.5,24.9,17.1,98,98,98,30.21,30.12,12,3,0,0.02
2013-3-25,32.0,24.0,17.6,31.5,23.5,17.1,98,98,98,30.28,30.21,6,2,0,0.62
2013-3-26,33.8,19.8,8.6,33.3,19.3,8.2,98,98,98,30.25,30.21,5,1,0,0.01
2013-3-27,35.6,19.6,3.2,35.1,19.1,2.8,98,98,98,30.27,30.22,4,0,0,0.00
2013-3-28,42.8,26.7,10.4,42.3,26.2,9.9,98,98,98,30.22,30.13,3,0,0,0.00
2013-3-29,42.8,28.7,19.4,42.3,28.2,18.9,98,98,98,30.14,29.88,4,0,0,0.00
2013-3-30,42.8,31.7,23.0,42.3,31.2,22.5,98,98,98,29.88,29.76,14,2,0,0.00
2013-3-31,30.2,22.0,12.2,29.7,21.5,11.7,98,98,98,30.13,29.79,12,5,0,0.89
2013-4-1,32.0,19.6,8.6,31.5,19.1,8.2,98,98,98,30.19,30.13,8,2,0,0.00
2013-4-2,30.2,18.8,10.4,29.7,18.3,9.9,98,98,98,30.31,30.14,6,1,0,0.00
2013-4-3,42.8,28.5,15.8,42.3,28.0,15.3,98,98,98,30.18,29.75,10,3,0,0.00
2013-4-4,32.0,25.9,15.8,31.5,25.4,15.3,98,98,98,30.21,29.88,10,3,0,0.00
2013-4-5,33.8,23.8,8.6,33.3,23.3,8.2,98,98,98,30.20,29.81,4,0,0,0.00
2013-4-6,37.4,33.7,30.2,36.9,33.2,29.7,98,98,98,29.81,29.67,9,3,0,0.08
2013-4-7,32.0,28.2,21.2,31.5,27.7,20.7,98,98,98,29.86,29.78,10,2,0,0.00
2013-4-8,26.6,20.1,12.2,26.1,19.6,11.7,98,98,98,30.23,29.86,12,5,0,0.82
2013-4-9,35.6,19.8,3.2,35.1,19.3,2.8,98,98,98,30.36,30.23,5,1,0,0.01
2013-4-10,41.0,26.0,12.2,40.5,25.5,11.7,98,98,98,30.30,30.05,5,1,0,0.00
2013-4-11,42.8,32.9,21.2,42.3,32.4,20.7,98,98,98,30.05,29.92,4,1,0,0.00
2013-4-12,39.2,34.1,30.2,38.7,33.8,18.9,98,97,98,29.93,29.83,7,2,0,0.00
2013-4-13,41.0,30.7,17.6,40.5,30.2,17.1,98,98,98,29.88,29.84,8,2,0,0.00
2013-4-14,32.0,23.0,19.4,31.5,22.5,18.9,98,98,98,29.90,29.88,3,0,0,0.00
2013-4-19,37.4,31.9,23.0,36.9,31.4,22.5,98,98,98,29.99,29.92,15,5,0,0.00
2013-4-20,41.0,28.2,12.2,40.5,27.7,11.7,98,98,98,30.11,29.99,7,1,0,0.00
2013-4-21,41.0,34.1,30.2,40.5,33.6,29.7,98,98,98,30.03,29.80,12,3,0,0.19
2013-4-22,41.0,31.2,23.0,40.5,30.7,22.5,98,98,98,30.26,29.99,10,3,0,0.00
2013-4-23,44.6,32.5,19.4,44.1,32.0,18.9,98,98,98,30.21,29.86,7,1,0,0.00
2013-4-24,42.8,33.3,26.6,42.3,32.8,26.1,98,98,98,29.89,29.72,8,2,0,0.00
2013-4-25,44.6,35.5,23.0,44.1,35.0,22.5,98,98,98,29.94,29.77,8,2,0,0.00
2013-4-26,64.4,47.4,33.8,63.8,46.8,33.3,98,98,98,29.89,29.73,6,1,0,0.00
2013-4-27,64.4,51.1,41.0,63.8,50.5,40.5,98,98,98,29.85,29.51,7,2,0,0.00
2013-4-28,64.4,50.7,39.2,63.8,50.1,38.7,98,98,98,29.73,29.40,13,4,0,0.00
2013-4-29,55.4,43.0,28.4,54.8,42.5,27.9,98,98,98,29.74,29.41,5,1,0,0.69
2013-4-30,46.4,39.9,30.2,45.9,39.4,29.7,98,98,98,29.85,29.26,9,2,0,1.09
2013-5-1,32.0,29.5,26.6,31.5,29.0,26.1,98,98,98,30.55,29.86,10,3,0,0.05
2013-5-2,44.6,31.8,26.6,44.1,31.3,26.1,98,98,98,30.65,30.49,6,2,0,0.57
2013-5-3,57.2,37.4,19.4,56.6,36.9,18.9,98,98,98,30.49,30.25,5,1,0,0.00
2013-5-4,62.6,44.6,26.6,62.0,44.1,26.1,98,98,98,30.29,30.19,7,2,0,0.00
2013-5-5,77.0,50.9,28.4,76.4,50.4,27.9,98,98,98,30.22,29.98,6,0,0,0.00
2013-5-6,82.4,63.6,44.6,81.8,63.1,44.1,98,98,98,29.98,29.83,9,2,0,0.00
2013-5-7,80.6,64.7,44.6,80.0,64.1,44.1,98,98,98,29.87,29.75,7,1,0,0.01
2013-5-8,55.4,47.7,35.6,54.8,47.1,35.1,98,98,98,30.19,29.82,15,8,0,0.00
2013-5-9,62.6,45.6,30.2,62.0,45.0,29.7,98,98,98,30.26,30.12,10,3,0,0.77
2013-5-10,53.6,44.2,32.0,53.0,43.7,31.5,98,98,98,30.12,29.84,15,3,0,0.11
2013-5-11,50.0,39.0,28.4,49.5,38.5,27.9,98,98,98,30.23,30.06,13,5,0,0.00
2013-5-12,64.4,44.1,23.0,63.8,43.6,22.5,98,98,98,30.18,29.86,4,0,0,0.00
2013-5-13,84.2,62.1,46.4,83.6,61.6,45.9,98,98,98,29.86,29.42,7,2,0,0.00
2013-5-14,78.8,65.2,55.4,78.2,64.6,54.8,98,98,98,29.59,29.21,20,4,0,0.44
2013-5-15,71.6,59.9,41.0,71.0,59.3,40.5,98,98,98,29.81,29.59,11,2,0,0.00
2013-5-16,78.8,59.8,42.8,78.2,59.3,42.3,98,98,98,29.91,29.81,5,1,0,0.00
2013-5-17,68.0,56.5,44.6,67.4,55.9,44.1,98,98,98,29.93,29.83,3,1,0,0.12
2013-5-18,68.0,57.8,53.6,67.4,57.2,53.0,98,98,98,29.84,29.77,3,0,0,0.30
2013-5-19,62.6,56.2,51.8,62.0,55.6,51.3,98,98,98,29.83,29.74,10,3,0,0.40
2013-5-20,57.2,53.2,46.4,56.6,52.7,45.9,98,98,98,29.84,29.71,15,8,0,0.66
2013-5-21,77.0,59.7,48.2,76.4,59.1,47.7,98,98,98,29.90,29.81,17,5,0,0.02
2013-5-22,69.8,56.9,39.2,69.2,56.3,38.7,98,98,98,30.15,29.90,13,4,0,0.00
2013-5-23,73.4,54.5,37.4,72.8,53.9,36.9,98,98,98,30.33,30.15,6,1,0,0.00
2013-5-24,73.4,57.0,35.6,72.8,56.4,35.1,98,98,98,30.22,30.04,6,1,0,0.00
2013-5-25,68.0,58.5,53.6,67.4,57.9,53.0,98,98,98,30.12,30.04,6,1,0,0.00
2013-5-26,73.4,63.5,53.6,72.8,62.9,53.0,98,98,98,30.08,29.94,6,1,0,0.00
2013-5-27,78.8,64.6,50.0,78.2,64.0,49.5,98,98,98,29.94,29.66,5,1,0,0.00
2013-5-28,69.8,62.0,59.0,69.2,61.4,58.4,98,98,98,29.66,29.44,4,1,0,0.31
2013-5-29,71.6,61.2,53.6,71.0,60.6,53.0,98,98,98,29.65,29.46,8,3,0,0.00
2013-5-30,60.8,57.1,53.6,60.2,56.5,53.0,98,98,98,29.64,29.49,12,5,0,1.12
2013-5-31,53.6,51.8,46.4,53.0,51.2,45.9,98,98,98,29.74,29.41,15,7,0,1.47
2013-6-1,60.8,51.7,44.6,60.2,51.2,44.1,98,98,98,30.01,29.74,13,6,0,0.24
2013-6-2,64.4,50.9,35.6,63.8,50.4,35.1,98,98,98,30.05,29.96,9,3,0,0.00
2013-6-3,69.8,54.0,35.6,69.2,53.5,35.1,98,98,98,30.02,29.93,7,1,0,0.00
2013-6-4,73.4,60.6,46.4,72.8,60.1,45.9,98,98,98,30.03,29.97,5,1,0,0.00
2013-6-5,86.0,63.6,42.8,85.4,63.0,42.3,98,98,98,30.04,29.95,6,1,0,0.00
2013-6-6,77.0,63.1,51.8,76.4,62.5,51.3,98,98,98,29.99,29.91,4,1,0,0.00
2013-6-7,77.0,66.3,55.4,76.4,65.7,54.8,98,98,98,29.78,29.75,5,1,0,0.00
2013-6-8,80.6,65.5,48.2,80.0,64.9,47.7,98,98,98,29.78,29.73,4,1,0,0.00
2013-6-9,71.6,61.6,53.6,71.0,61.0,53.0,98,98,98,29.80,29.75,4,0,0,0.61
2013-6-10,77.0,63.2,51.8,76.4,62.7,51.3,98,98,98,29.75,29.58,5,1,0,0.20
2013-6-11,80.6,66.0,51.8,80.0,65.4,51.3,98,98,98,29.81,29.69,8,2,0,0.00
2013-6-12,77.0,64.8,53.6,76.4,64.2,53.0,98,98,98,29.99,29.81,10,2,0,0.00
2013-6-13,82.4,67.7,50.0,81.8,67.1,49.5,98,98,98,30.09,29.94,6,1,0,0.00
2013-6-14,78.8,66.3,57.2,78.2,65.7,56.6,98,98,98,29.94,29.63,5,1,0,0.28
2013-6-15,80.6,67.7,55.4,80.0,67.1,54.8,98,98,98,29.69,29.59,11,4,0,0.00
2013-6-16,78.8,65.2,53.6,78.2,64.6,53.0,98,98,98,29.78,29.63,8,2,0,0.00
2013-6-17,78.8,66.6,53.6,78.2,66.0,53.0,98,98,98,29.98,29.78,7,2,0,0.00
2013-6-18,80.6,66.1,46.4,80.0,65.5,45.9,98,98,98,30.00,29.82,2,0,0,0.00
2013-6-19,87.8,70.6,51.8,87.2,70.0,51.3,98,98,98,29.86,29.79,8,1,0,0.00
2013-6-20,80.6,71.0,60.8,80.0,70.4,60.2,98,98,98,29.87,29.77,8,2,0,0.33
2013-6-21,75.2,69.0,62.6,74.6,68.4,62.0,98,98,98,29.92,29.79,5,1,0,0.00
2013-6-22,86.0,72.7,62.6,85.4,72.1,62.0,98,98,98,29.89,29.70,5,1,0,0.00
2013-6-23,77.0,64.7,57.2,76.4,64.1,56.6,98,98,98,29.72,29.38,5,1,0,1.48
2013-6-24,86.0,71.7,55.4,85.4,71.1,54.8,98,98,98,29.64,29.52,9,3,0,0.00
2013-6-25,95.0,76.2,57.2,94.3,75.6,56.6,98,98,98,29.64,29.51,8,1,0,0.09
2013-6-26,84.2,72.1,64.4,83.6,71.5,63.8,98,98,98,29.58,29.49,10,2,0,0.67
2013-6-27,77.0,68.0,62.6,76.4,67.4,62.0,98,98,98,29.74,29.55,11,3,0,0.04
2013-6-28,77.0,67.8,62.6,76.4,67.2,62.0,98,98,98,29.89,29.74,9,3,0,0.00
2013-6-29,82.4,67.7,59.0,81.8,67.1,58.4,98,98,98,29.95,29.88,8,2,0,0.00
2013-6-30,86.0,80.0,66.2,85.4,79.4,65.6,98,98,98,30.10,30.07,9,2,0,0.00
2013-7-1,89.6,75.6,57.2,89.0,75.0,56.6,98,98,98,30.14,30.04,5,1,0,0.00
2013-7-2,95.0,77.0,60.8,94.3,76.4,60.2,98,98,98,30.05,29.89,4,0,0,0.00
2013-7-3,95.0,78.9,62.6,94.3,78.3,62.0,98,98,98,29.89,29.66,4,0,0,0.00
2013-7-4,91.4,79.1,68.0,90.8,78.5,67.4,98,98,98,29.67,29.56,5,0,0,0.00
2013-7-5,87.8,76.7,64.4,87.2,76.1,63.8,98,98,98,29.66,29.58,9,2,0,0.02
2013-7-6,87.8,74.7,68.0,87.2,74.1,67.4,98,98,98,29.71,29.65,1,0,0,0.27
2013-7-7,86.0,73.3,64.4,85.4,72.7,63.8,98,98,98,29.83,29.66,8,2,0,0.02
2013-7-8,89.6,71.4,55.4,89.0,70.8,54.8,98,98,98,29.86,29.75,6,1,0,0.00
2013-7-9,73.4,65.3,59.0,72.8,64.7,58.4,98,98,98,29.87,29.78,9,2,0,0.11
2013-7-10,86.0,68.6,57.2,85.4,68.0,56.6,98,98,98,29.91,29.85,6,1,0,0.01
2013-7-11,89.6,75.8,62.6,89.0,75.2,62.0,98,98,98,29.85,29.60,6,1,0,0.00
2013-7-12,82.4,76.1,68.0,81.8,75.5,67.4,98,98,98,29.69,29.52,3,0,0,0.05
2013-7-13,87.8,75.7,62.6,87.2,75.1,62.0,98,98,98,29.91,29.70,6,2,0,0.00
2013-7-14,82.4,69.2,60.8,81.8,68.6,60.2,98,98,98,30.12,29.86,8,3,0,0.11
2013-7-15,87.8,70.7,55.4,87.2,70.1,54.8,98,98,98,30.12,29.87,5,1,0,0.00
2013-7-16,80.6,74.7,60.8,80.0,74.1,60.2,98,98,98,30.08,29.77,7,2,0,0.00
2013-7-17,82.4,71.1,57.2,81.8,70.5,56.6,98,98,98,30.15,29.97,7,1,0,0.04
2013-7-18,80.6,70.0,62.6,80.0,69.4,62.0,98,98,98,29.98,29.52,12,1,0,1.00
2013-7-19,78.8,66.4,51.8,78.2,65.8,51.3,98,98,98,29.88,29.60,12,3,0,0.00
2013-7-20,77.0,58.8,46.4,76.4,58.3,45.9,98,98,98,30.01,29.88,8,2,0,0.00
2013-7-21,77.0,62.1,50.0,76.4,61.5,49.5,98,98,98,29.91,29.44,8,1,0,1.41
2013-7-22,68.0,61.5,55.4,67.4,60.9,54.8,98,98,98,29.84,29.44,10,3,0,0.00
2013-7-23,77.0,63.7,50.0,76.4,63.1,49.5,98,98,98,29.97,29.85,4,1,0,0.34
2013-7-24,77.0,65.8,53.6,76.4,65.2,53.0,98,98,98,29.92,29.77,7,1,0,0.00
2013-7-25,68.0,59.4,55.4,67.4,58.8,54.8,98,98,98,30.00,29.75,13,3,0,1.87
2013-7-26,68.0,59.1,50.0,67.4,58.5,49.5,98,98,98,30.16,30.00,13,3,0,0.00
2013-7-27,73.4,61.1,46.4,72.8,60.6,45.9,98,98,98,30.13,29.97,9,2,0,0.00
2013-7-28,86.0,64.5,48.2,85.4,63.9,47.7,98,98,98,29.99,29.90,4,0,0,0.00
2013-7-29,78.8,64.8,50.0,78.2,64.2,49.5,98,98,98,29.92,29.81,3,0,0,0.04
2013-7-30,78.8,66.8,59.0,78.2,66.2,58.4,98,98,98,29.90,29.82,7,2,0,0.26
2013-7-31,75.2,63.4,53.6,74.6,62.8,53.0,98,98,98,29.89,29.84,9,3,0,0.00
2013-8-1,78.8,66.4,55.4,78.2,65.8,54.8,98,98,98,29.85,29.77,8,2,0,0.01
2013-8-2,73.4,62.8,51.8,72.8,62.2,51.3,98,98,98,30.02,29.80,8,2,0,0.27
2013-8-3,78.8,62.0,48.2,78.2,61.4,47.7,98,98,98,30.15,30.03,5,0,0,0.00
2013-8-4,73.4,57.9,46.4,72.8,57.3,45.9,98,98,98,30.14,29.87,4,0,0,0.37
2013-8-5,78.8,65.4,55.4,78.2,64.8,54.8,98,98,98,29.86,29.64,7,1,0,0.01
2013-8-6,73.4,63.4,53.6,72.8,62.8,53.0,98,98,98,29.82,29.62,12,3,0,0.00
2013-8-7,68.0,57.8,51.8,67.4,57.3,51.3,98,98,98,29.94,29.82,12,1,0,0.05
2013-8-8,69.8,58.5,44.6,69.2,57.9,44.1,98,98,98,29.94,29.86,10,2,0,1.19
2013-8-9,64.4,58.9,53.6,63.8,58.3,53.0,98,98,98,30.04,29.85,9,2,0,0.01
2013-8-10,77.0,61.4,50.0,76.4,60.8,49.5,98,98,98,30.07,29.98,5,1,0,0.19
2013-8-11,78.8,65.0,53.6,78.2,64.4,53.0,98,98,98,30.01,29.92,7,1,0,0.01
2013-8-12,73.4,63.6,55.4,72.8,63.0,54.8,98,98,98,30.08,29.93,8,2,0,0.00
2013-8-13,73.4,56.0,46.4,72.8,55.4,45.9,98,98,98,30.14,30.07,5,0,0,0.00
2013-8-14,86.0,61.4,44.6,85.4,60.9,44.1,98,98,98,30.09,29.94,4,0,0,1.01
2013-8-15,86.0,65.9,50.0,85.4,65.3,49.5,98,98,98,29.97,29.91,2,0,0,0.00
2013-8-16,87.8,73.8,59.0,87.2,73.2,58.4,98,98,98,29.92,29.82,7,1,0,0.00
2013-8-17,84.2,73.0,62.6,83.6,72.4,62.0,98,98,98,29.84,29.69,10,1,0,0.00
2013-8-18,82.4,71.8,62.6,81.8,71.2,62.0,98,98,98,29.76,29.69,6,0,0,1.43
2013-8-19,96.8,78.1,60.8,96.1,77.7,18.9,98,97,98,29.73,29.55,7,1,0,0.00
2013-8-20,87.8,75.5,64.4,87.2,74.9,63.8,98,98,98,29.67,29.55,11,2,0,0.00
2013-8-21,78.8,67.9,57.2,78.2,67.3,56.6,98,98,98,30.00,29.68,9,2,0,0.00
2013-8-22,86.0,66.3,51.8,85.4,65.7,51.3,98,98,98,30.10,29.99,5,0,0,0.00
2013-8-23,87.8,68.9,50.0,87.2,68.3,49.5,98,98,98,30.00,29.75,6,0,0,0.00
2013-8-24,87.8,76.1,68.0,87.2,75.5,67.4,98,98,98,29.76,29.55,4,0,0,0.04
2013-8-25,89.6,74.4,69.8,89.0,73.8,69.2,98,98,98,29.83,29.62,3,0,0,0.00
2013-8-26,95.0,76.7,60.8,94.3,76.0,60.2,98,98,98,29.85,29.73,5,0,0,1.94
2013-8-27,95.0,78.7,64.4,94.3,78.1,63.8,98,98,98,29.78,29.73,4,0,0,0.00
2013-8-28,98.6,79.4,64.4,97.9,78.8,63.8,98,98,98,29.88,29.78,4,0,0,0.00
2013-8-29,86.0,72.2,68.0,85.4,71.6,67.4,98,98,98,29.85,29.72,6,1,0,0.91
2013-8-30,89.6,75.1,62.6,89.0,74.5,62.0,98,98,98,29.88,29.61,4,0,0,0.60
2013-8-31,87.8,72.7,59.0,87.2,72.1,58.4,98,98,98,29.75,29.54,11,2,0,0.06
2013-9-1,69.8,58.7,51.8,69.2,58.1,51.3,98,98,98,29.98,29.75,14,4,0,0.00
2013-9-2,77.0,59.6,42.8,76.4,59.0,42.3,98,98,98,30.02,29.83,3,0,0,0.00
2013-9-3,82.4,65.2,50.0,81.8,64.6,49.5,98,98,98,30.01,29.77,13,2,0,0.00
2013-9-4,80.6,57.2,42.8,80.0,56.6,42.3,98,98,98,30.15,30.02,4,0,0,0.00
2013-9-5,86.0,66.4,46.4,85.4,65.8,45.9,98,98,98,30.09,29.82,5,0,0,0.00
2013-9-6,93.2,76.4,64.4,92.5,75.8,63.8,98,98,98,29.85,29.71,10,1,0,0.00
2013-9-7,78.8,66.2,55.4,78.2,65.8,18.9,98,97,98,30.06,29.85,12,2,0,0.84
2013-9-8,77.0,64.2,53.6,76.4,63.6,53.0,98,98,98,30.05,29.74,4,0,0,0.00
2013-9-9,68.0,62.8,59.0,67.4,62.2,58.4,98,98,98,29.74,29.61,5,0,0,0.05
2013-9-10,82.4,68.7,59.0,81.8,68.1,58.4,98,98,98,29.76,29.66,5,1,0,0.05
2013-9-11,75.2,63.3,53.6,74.6,62.7,53.0,98,98,98,30.09,29.77,9,1,0,0.00
2013-9-12,75.2,60.2,48.2,74.6,59.6,47.7,98,98,98,30.20,30.08,5,1,0,0.00
2013-9-13,80.6,62.5,44.6,80.0,61.9,44.1,98,98,98,30.11,29.67,7,1,0,0.00
2013-9-14,69.8,62.8,51.8,69.2,62.3,51.3,98,98,98,30.00,29.63,11,3,0,0.02
2013-9-15,64.4,50.1,37.4,63.8,49.5,36.9,98,98,98,30.25,30.01,8,2,0,0.00
2013-9-16,71.6,53.2,33.8,71.0,52.6,33.3,98,98,98,30.23,29.91,4,1,0,0.74
2013-9-17,69.8,60.3,53.6,69.2,59.7,53.0,98,98,98,29.91,29.63,5,1,0,0.00
2013-9-18,73.4,65.4,59.0,72.8,64.8,58.4,98,98,98,29.63,29.45,4,0,0,0.00
2013-9-19,66.2,60.8,50.0,65.6,60.2,49.5,98,98,98,29.79,29.46,7,2,0,0.00
2013-9-20,57.2,49.6,42.8,56.6,49.1,42.3,98,98,98,29.88,29.78,8,2,0,0.00
2013-9-21,62.6,48.4,35.6,62.0,47.9,35.1,98,98,98,29.93,29.78,2,0,0,0.00
2013-9-22,71.6,56.0,41.0,71.0,55.4,40.5,98,98,98,29.78,29.45,8,1,0,0.00
2013-9-23,80.6,69.8,60.8,80.0,69.2,60.2,98,98,98,29.57,29.42,7,2,0,0.00
2013-9-24,77.0,63.6,50.0,76.4,63.0,49.5,98,98,98,29.75,29.58,7,1,0,0.00
2013-9-25,78.8,61.5,44.6,78.2,61.0,44.1,98,98,98,29.77,29.63,5,1,0,0.00
2013-9-26,71.6,64.2,57.2,71.0,63.6,56.6,98,98,98,29.68,29.50,7,1,0,0.21
2013-9-27,62.6,54.2,44.6,62.0,53.6,44.1,98,98,98,29.71,29.62,4,0,0,0.00
2013-9-28,53.6,49.6,44.6,53.0,49.1,44.1,98,98,98,29.66,29.50,6,1,0,1.22
2013-9-29,69.8,55.1,37.4,69.2,54.6,36.9,98,98,98,29.58,29.35,6,1,0,0.00
2013-9-30,73.4,62.2,51.8,72.8,61.6,51.3,98,98,98,29.36,29.29,11,1,0,0.00
2013-10-1,62.6,54.2,42.8,62.0,53.6,42.3,98,98,98,29.70,29.30,17,4,0,0.18
2013-10-2,64.4,48.6,35.6,63.8,48.1,35.1,98,98,98,29.86,29.69,5,1,0,0.00
2013-10-3,55.4,47.5,41.0,54.8,47.0,40.5,98,98,98,30.16,29.85,12,3,0,0.52
2013-10-4,44.6,41.0,37.4,44.1,40.5,36.9,98,98,98,30.30,30.17,15,4,0,0.00
2013-10-5,53.6,40.6,32.0,53.0,40.1,31.5,98,98,98,30.20,29.88,10,4,0,0.00
2013-10-6,64.4,46.6,32.0,63.8,46.1,31.5,98,98,98,29.89,29.66,8,1,0,0.00
2013-10-7,62.6,49.0,37.4,62.0,48.5,36.9,98,98,98,29.83,29.60,5,1,0,0.00
2013-10-8,69.8,56.6,48.2,69.2,56.0,47.7,98,98,98,29.61,29.45,6,1,0,0.00
2013-10-9,53.6,47.4,42.8,53.0,46.9,42.3,98,98,98,29.89,29.61,5,0,0,0.00
2013-10-10,68.0,50.8,37.4,67.4,50.2,36.9,98,98,98,29.90,29.61,0,0,0,0.00
2013-10-11,69.8,60.9,53.6,69.2,60.3,53.0,98,98,98,29.61,29.18,5,1,0,0.12
2013-10-12,59.0,49.4,37.4,58.4,48.9,36.9,98,98,98,29.97,29.16,17,4,0,0.15
2013-10-13,55.4,42.3,32.0,54.8,41.8,31.5,98,98,98,30.26,29.98,6,2,0,0.00
2013-10-14,50.0,39.7,28.4,49.5,39.2,27.9,98,98,98,30.26,30.16,4,0,0,0.29
2013-10-15,46.4,38.0,28.4,45.9,37.7,18.9,98,97,98,30.16,29.88,8,2,0,0.00
2013-11-5,30.2,25.6,28.4,29.7,14.1,-99.9,98,87,98,29.99,29.98,4,-110,0,0.00
2013-11-6,35.6,29.9,21.2,35.1,29.4,20.7,98,98,98,30.04,29.95,5,1,0,0.00
2013-11-7,33.8,28.4,21.2,33.3,27.9,20.7,98,98,98,30.07,29.92,4,0,0,0.00
2013-11-8,39.2,32.6,21.2,38.7,32.1,20.7,98,98,98,29.91,29.53,3,1,0,0.05
2013-11-9,33.8,32.5,30.2,33.3,32.0,29.7,98,98,98,30.08,29.54,7,2,0,0.30
2013-11-10,30.2,22.8,10.4,29.7,22.3,9.9,98,98,98,30.29,29.92,12,4,0,0.00
2013-11-11,19.4,12.0,5.0,18.9,11.5,4.6,98,98,98,30.58,30.30,7,2,0,0.00
2013-11-12,23.0,13.6,10.4,22.5,13.1,9.9,98,98,98,30.51,30.31,4,2,0,0.00
2013-11-14,32.0,27.4,32.0,31.5,12.7,-99.9,98,84,98,29.92,28.84,0,-143,0,0.00
2013-11-15,39.2,32.0,28.4,38.7,31.5,27.9,98,98,98,29.72,29.56,5,1,0,0.00
2013-11-16,37.4,32.9,25.9,36.9,32.4,25.4,98,98,98,29.45,29.34,8,2,0,0.00
2013-11-17,32.0,28.3,19.8,31.5,27.8,19.3,98,98,98,29.95,29.45,11,5,0,0.00
2013-11-18,21.9,18.7,16.2,21.4,18.2,15.7,98,98,98,30.20,29.95,6,1,0,0.00
2013-11-19,33.8,28.2,19.4,33.3,27.7,18.9,98,98,98,30.15,29.54,6,2,0,0.00
2013-11-20,32.0,22.0,14.0,31.5,20.6,-69.4,98,97,98,30.30,29.57,13,5,0,0.00
2013-11-21,14.0,7.7,3.2,13.5,7.2,2.8,98,98,98,30.58,30.30,8,2,0,0.00
2013-11-22,10.4,6.8,-5.8,9.9,6.3,-6.2,98,98,98,30.84,30.35,12,4,0,0.00
2013-11-23,6.8,-1.6,-9.4,6.4,-2.0,-9.8,98,98,98,30.88,30.45,6,2,0,0.00
2013-11-24,33.8,20.2,6.8,33.3,19.7,6.4,98,98,98,30.44,29.63,13,4,0,0.00
2013-11-25,33.8,25.7,14.0,33.3,25.2,13.5,98,98,98,30.16,29.70,13,6,0,0.00
2013-11-26,17.6,11.4,1.4,17.1,10.9,1.0,98,98,98,30.47,30.16,9,3,0,0.00
2013-11-27,17.6,13.1,3.2,17.1,12.6,2.8,98,98,98,30.41,30.05,5,1,0,0.00
2013-11-28,17.6,8.1,-0.4,17.1,7.6,-0.8,98,98,98,30.49,30.16,3,0,0,0.25
2013-11-29,21.2,14.8,-0.4,20.7,14.3,-0.8,98,98,98,30.47,30.01,4,0,0,0.00
2013-11-30,23.0,21.3,21.2,22.5,20.8,20.7,98,98,98,30.25,30.02,4,0,0,0.00
2013-12-1,28.4,22.8,20.8,27.9,22.3,20.4,98,98,98,30.24,29.98,2,0,0,0.00
2013-12-2,23.0,20.3,16.7,22.5,19.8,16.2,98,98,98,30.00,29.88,10,4,0,0.04
2013-12-3,19.4,15.9,12.2,18.9,15.4,11.7,98,98,98,30.12,29.99,13,6,0,0.00
2013-12-4,15.8,13.0,8.6,15.3,12.5,8.2,98,98,98,30.11,29.83,12,6,0,0.00
2013-12-5,12.2,5.0,-4.0,11.7,4.6,-4.4,98,98,98,30.26,29.81,11,5,0,0.00
2013-12-6,3.2,-4.1,-7.6,2.8,-4.5,-8.0,98,98,98,30.53,30.26,7,2,0,0.00
2013-12-7,-7.6,-11.5,-16.6,-8.0,-11.9,-17.0,98,98,98,30.53,30.33,7,2,0,0.00
2013-12-8,-4.0,-9.9,-16.6,-4.4,-10.3,-17.0,98,98,98,30.34,30.00,5,2,0,0.00
2013-12-9,-5.8,-10.6,-16.6,-6.2,-11.0,-17.0,98,98,98,29.99,29.83,5,1,0,0.00
2013-12-10,-0.4,-8.9,-14.8,-0.8,-9.3,-15.2,98,98,98,30.32,29.86,7,2,0,0.00
2013-12-11,-13.0,-13.0,-13.0,-13.4,-13.4,-13.4,98,98,98,30.36,30.32,4,1,0,0.00
2013-12-15,-2.2,-10.3,-25.6,-2.6,-10.7,-26.0,98,98,98,30.27,29.93,6,1,0,0.00
2013-12-16,32.0,17.1,-0.4,31.5,16.6,-0.8,98,98,98,29.93,29.68,12,4,0,0.00
2013-12-17,26.6,4.7,-5.8,26.1,4.2,-6.2,98,98,98,30.11,29.72,12,3,0,0.00
2013-12-18,12.2,3.6,-7.6,11.7,3.2,-8.0,98,98,98,30.14,29.65,13,3,0,0.12
2013-12-19,-0.4,-8.1,-14.8,-0.8,-8.5,-15.2,98,98,98,30.37,30.13,6,1,0,0.04
2013-12-20,6.8,-0.8,-7.6,6.4,-1.2,-8.0,98,98,98,30.13,29.90,8,2,0,0.00
2013-12-21,-4.0,-14.5,-20.2,-4.4,-14.9,-20.6,98,98,98,30.34,29.97,7,2,0,0.00
2013-12-22,-9.4,-16.8,-22.0,-9.8,-17.2,-22.4,98,98,98,30.55,30.32,6,2,0,0.00
2013-12-23,-7.6,-16.6,-25.6,-8.0,-17.0,-26.0,98,98,98,30.62,30.27,6,1,0,0.04
2013-12-24,12.2,3.5,-9.4,11.7,3.0,-9.8,98,98,98,30.26,29.95,11,3,0,0.04
2013-12-25,14.0,8.0,-4.0,13.5,7.6,-4.4,98,98,98,30.17,30.01,10,2,0,0.00
2013-12-26,17.6,5.5,-9.4,17.1,5.0,-9.8,98,98,98,30.13,29.91,5,1,0,0.00
2013-12-27,32.0,23.2,8.6,31.5,22.7,8.2,98,98,98,30.02,29.66,9,4,0,0.04
2013-12-28,10.4,-4.2,-22.0,9.9,-4.6,-22.4,98,98,98,30.54,29.98,16,7,0,0.00
2013-12-29,-9.4,-18.7,-25.6,-9.8,-19.1,-26.0,98,98,98,30.53,30.18,4,1,0,0.00
2013-12-30,-14.8,-21.8,-25.6,-15.2,-22.2,-26.0,98,98,98,30.34,30.18,4,0,0,0.04
2013-12-31,-18.4,-23.7,-29.2,-18.8,-24.1,-29.6,98,98,98,30.50,30.23,4,0,0,0.04
2014-1-1,-9.4,-21.4,-27.4,-9.8,-21.8,-27.8,98,98,98,30.57,30.50,1,0,0,0.00
2014-1-2,-4.0,-19.0,-29.2,-4.4,-19.4,-29.6,98,98,98,30.51,30.01,6,1,0,0.00